createdAt,value
2022-08-23T00:01:51.910Z,69.69
2022-08-23T00:04:28.446Z,70.03
2022-08-23T00:07:05.556Z,69.98
2022-08-23T00:09:36.431Z,69.60
2022-08-23T00:12:11.764Z,69.99
2022-08-23T00:14:43.139Z,69.67
2022-08-23T00:17:33.818Z,70.65
2022-08-23T00:20:04.639Z,71.34
2022-08-23T00:22:33.974Z,71.22
2022-08-23T00:25:04.776Z,72.71
2022-08-23T00:27:34.539Z,72.82
2022-08-23T00:30:04.306Z,72.79
2022-08-23T00:32:35.995Z,72.84
2022-08-23T00:35:09.445Z,72.53
2022-08-23T00:37:39.404Z,72.05
2022-08-23T00:40:13.622Z,72.19
2022-08-23T00:43:03.360Z,72.90
2022-08-23T00:46:00.475Z,72.55
2022-08-23T00:48:29.604Z,72.64
2022-08-23T00:51:05.901Z,72.46
2022-08-23T00:53:38.550Z,72.90
2022-08-23T00:56:12.283Z,73.67
2022-08-23T00:58:42.921Z,73.41
2022-08-23T01:01:12.259Z,73.53
2022-08-23T01:03:57.081Z,73.10
2022-08-23T01:06:40.644Z,73.37
2022-08-23T01:09:13.265Z,73.87
2022-08-23T01:11:51.223Z,73.35
2022-08-23T01:14:28.798Z,73.47
2022-08-23T01:17:05.586Z,73.52
2022-08-23T01:19:38.680Z,73.72
2022-08-23T01:22:14.424Z,74.09
2022-08-23T01:25:07.268Z,73.95
2022-08-23T01:27:39.590Z,74.00
2022-08-23T01:30:11.865Z,74.04
2022-08-23T01:32:47.059Z,73.28
2022-08-23T01:35:17.204Z,74.53
2022-08-23T01:37:47.861Z,74.49
2022-08-23T01:40:18.516Z,74.47
2022-08-23T01:42:49.568Z,74.57
2022-08-23T01:45:19.350Z,73.98
2022-08-23T01:47:48.690Z,74.47
2022-08-23T01:50:18.967Z,73.86
2022-08-23T01:52:48.268Z,73.39
2022-08-23T01:55:22.794Z,72.80
2022-08-23T01:57:56.947Z,72.93
2022-08-23T02:00:30.350Z,73.54
2022-08-23T02:03:00.079Z,73.38
2022-08-23T02:05:30.834Z,73.52
2022-08-23T02:08:21.196Z,74.32
2022-08-23T02:10:54.280Z,73.88
2022-08-23T02:13:23.956Z,74.87
2022-08-23T02:15:55.206Z,73.91
2022-08-23T02:18:25.901Z,74.91
2022-08-23T02:20:55.867Z,75.52
2022-08-23T02:23:25.425Z,75.14
2022-08-23T02:25:57.803Z,75.64
2022-08-23T02:28:27.669Z,76.31
2022-08-23T02:30:56.741Z,77.04
2022-08-23T02:33:27.547Z,77.11
2022-08-23T02:35:57.033Z,77.19
2022-08-23T02:38:26.235Z,77.01
2022-08-23T02:41:01.003Z,76.84
2022-08-23T02:43:32.166Z,76.82
2022-08-23T02:46:01.415Z,76.46
2022-08-23T02:48:32.699Z,77.62
2022-08-23T02:51:07.537Z,76.48
2022-08-23T02:53:37.157Z,78.48
2022-08-23T02:56:21.623Z,77.70
2022-08-23T02:58:54.399Z,78.04
2022-08-23T03:01:28.733Z,77.76
2022-08-23T03:04:02.921Z,77.42
2022-08-23T03:06:32.980Z,77.77
2022-08-23T03:09:02.738Z,77.39
2022-08-23T03:16:28.242Z,77.09
2022-08-23T03:18:57.496Z,77.76
2022-08-23T03:21:26.898Z,76.88
2022-08-23T03:23:57.323Z,77.17
2022-08-23T03:26:27.144Z,76.62
2022-08-23T03:28:57.472Z,75.55
2022-08-23T03:31:32.740Z,76.51
2022-08-23T03:34:08.092Z,76.63
2022-08-23T03:36:38.152Z,77.05
2022-08-23T03:39:08.544Z,76.75
2022-08-23T03:41:37.820Z,77.55
2022-08-23T03:44:07.684Z,76.98
2022-08-23T03:46:42.383Z,76.58
2022-08-23T03:49:12.605Z,76.06
2022-08-23T03:51:47.624Z,76.59
2022-08-23T03:54:17.854Z,76.04
2022-08-23T03:56:55.242Z,76.10
2022-08-23T03:59:25.811Z,76.16
2022-08-23T04:01:56.974Z,76.21
2022-08-23T04:04:26.768Z,76.55
2022-08-23T04:07:20.913Z,76.43
2022-08-23T04:09:55.268Z,76.15
2022-08-23T04:12:27.293Z,76.34
2022-08-23T04:14:56.826Z,76.56
2022-08-23T04:17:32.293Z,76.55
2022-08-23T04:20:03.716Z,76.01
2022-08-23T04:22:35.660Z,76.70
2022-08-23T04:25:05.370Z,75.91
2022-08-23T04:27:54.887Z,75.41
2022-08-23T04:30:24.379Z,74.77
2022-08-23T04:32:57.397Z,75.40
2022-08-23T04:35:27.699Z,75.12
2022-08-23T04:37:57.094Z,74.94
2022-08-23T04:40:45.136Z,75.90
2022-08-23T04:43:16.029Z,75.70
2022-08-23T04:45:45.372Z,75.08
2022-08-23T04:48:27.393Z,75.29
2022-08-23T04:50:57.908Z,76.53
2022-08-23T04:53:29.238Z,75.73
2022-08-23T04:56:24.584Z,75.62
2022-08-23T04:58:55.296Z,74.83
2022-08-23T05:01:25.946Z,74.11
2022-08-23T05:03:58.375Z,74.69
2022-08-23T05:06:29.396Z,74.52
2022-08-23T05:08:59.208Z,74.75
2022-08-23T05:11:29.248Z,74.80
2022-08-23T05:13:58.355Z,75.29
2022-08-23T05:16:27.826Z,74.00
2022-08-23T05:19:04.135Z,74.10
2022-08-23T05:21:35.732Z,74.81
2022-08-23T05:24:05.457Z,74.65
2022-08-23T05:26:35.212Z,75.07
2022-08-23T05:29:05.244Z,74.62
2022-08-23T05:31:40.879Z,74.61
2022-08-23T05:34:11.914Z,74.37
2022-08-23T05:36:48.105Z,73.84
2022-08-23T05:39:35.750Z,74.23
2022-08-23T05:42:09.379Z,73.47
2022-08-23T05:44:39.666Z,74.37
2022-08-23T05:47:12.922Z,74.86
2022-08-23T05:50:06.051Z,74.53
2022-08-23T05:52:38.515Z,74.43
2022-08-23T05:55:08.927Z,75.08
2022-08-23T05:57:57.555Z,75.14
2022-08-23T06:00:40.649Z,74.26
2022-08-23T06:03:11.094Z,72.30
2022-08-23T06:05:43.052Z,71.30
2022-08-23T06:08:13.529Z,70.47
2022-08-23T06:10:42.852Z,69.54
2022-08-23T06:13:24.572Z,70.13
2022-08-23T06:15:53.887Z,70.91
2022-08-23T06:18:24.501Z,68.92
2022-08-23T06:21:06.169Z,69.81
2022-08-23T06:23:46.649Z,68.87
2022-08-23T06:26:18.518Z,67.98
2022-08-23T06:28:51.063Z,67.02
2022-08-23T06:31:36.693Z,67.52
2022-08-23T06:34:10.210Z,68.01
2022-08-23T06:37:02.074Z,68.00
2022-08-23T06:40:09.065Z,70.18
2022-08-23T06:42:59.988Z,69.33
2022-08-23T06:45:41.501Z,70.59
2022-08-23T06:48:22.781Z,68.18
2022-08-23T06:50:52.607Z,70.00
2022-08-23T06:53:56.538Z,70.08
2022-08-23T06:56:55.282Z,68.94
2022-08-23T06:59:31.276Z,69.46
2022-08-23T07:02:32.977Z,68.52
2022-08-23T07:05:21.594Z,68.14
2022-08-23T07:08:13.936Z,67.71
2022-08-23T07:10:44.944Z,68.37
2022-08-23T07:13:18.381Z,69.82
2022-08-23T07:15:50.095Z,66.91
2022-08-23T07:18:21.932Z,67.73
2022-08-23T07:21:49.380Z,66.36
2022-08-23T07:28:44.030Z,67.30
2022-08-23T07:31:15.976Z,65.16
2022-08-23T07:33:47.846Z,66.03
2022-08-23T07:36:24.109Z,66.46
2022-08-23T07:38:54.411Z,64.54
2022-08-23T07:41:25.533Z,63.73
2022-08-23T07:43:56.165Z,64.38
2022-08-23T07:46:26.395Z,64.67
2022-08-23T07:48:58.156Z,63.64
2022-08-23T07:51:36.162Z,62.92
2022-08-23T07:54:08.819Z,62.56
2022-08-23T07:56:45.827Z,63.99
2022-08-23T07:59:51.960Z,63.76
2022-08-23T08:02:40.264Z,64.98
2022-08-23T08:05:21.623Z,65.04
2022-08-23T08:07:52.304Z,64.62
2022-08-23T08:10:21.610Z,65.54
2022-08-23T08:12:51.330Z,65.04
2022-08-23T08:15:24.037Z,65.25
2022-08-23T08:18:01.210Z,65.21
2022-08-23T08:20:51.317Z,66.74
2022-08-23T08:23:39.280Z,64.70
2022-08-23T08:26:37.394Z,62.95
2022-08-23T08:29:07.495Z,62.31
2022-08-23T08:31:39.672Z,62.49
2022-08-23T08:34:10.077Z,61.17
2022-08-23T08:36:42.097Z,59.40
2022-08-23T08:39:20.199Z,58.56
2022-08-23T08:42:05.279Z,59.28
2022-08-23T08:44:42.033Z,56.70
2022-08-23T08:47:19.155Z,56.94
2022-08-23T08:49:54.251Z,57.25
2022-08-23T08:52:27.824Z,58.76
2022-08-23T08:55:10.921Z,58.90
2022-08-23T08:57:44.719Z,57.67
2022-08-23T09:00:16.463Z,58.83
2022-08-23T09:02:48.306Z,58.79
2022-08-23T09:05:22.095Z,58.85
2022-08-23T09:08:05.976Z,60.87
2022-08-23T09:10:54.203Z,59.24
2022-08-23T09:13:53.933Z,58.41
2022-08-23T09:16:40.716Z,60.02
2022-08-23T09:19:11.878Z,59.43
2022-08-23T09:21:48.011Z,58.30
2022-08-23T09:24:17.616Z,58.86
2022-08-23T09:26:59.912Z,59.09
2022-08-23T09:29:31.365Z,57.43
2022-08-23T09:32:03.435Z,58.60
2022-08-23T09:34:43.610Z,57.87
2022-08-23T09:37:19.393Z,59.25
2022-08-23T09:39:51.746Z,58.90
2022-08-23T09:42:30.941Z,58.81
2022-08-23T09:45:01.258Z,59.82
2022-08-23T09:47:39.817Z,59.33
2022-08-23T09:50:33.898Z,60.39
2022-08-23T09:53:08.399Z,60.14
2022-08-23T09:55:42.192Z,59.68
2022-08-23T09:58:23.574Z,59.98
2022-08-23T10:01:13.747Z,60.12
2022-08-23T10:03:46.820Z,58.73
2022-08-23T10:06:34.286Z,58.56
2022-08-23T10:09:08.795Z,60.36
2022-08-23T10:11:45.019Z,60.86
2022-08-23T10:14:17.743Z,58.57
2022-08-23T10:17:03.153Z,59.34
2022-08-23T10:19:41.240Z,58.63
2022-08-23T10:22:23.587Z,58.26
2022-08-23T10:25:16.331Z,58.86
2022-08-23T10:28:13.775Z,58.50
2022-08-23T10:30:59.730Z,59.45
2022-08-23T10:33:43.389Z,58.55
2022-08-23T10:36:19.852Z,57.88
2022-08-23T10:38:57.957Z,56.40
2022-08-23T10:41:50.008Z,55.75
2022-08-23T10:44:27.182Z,53.73
2022-08-23T10:47:15.611Z,55.12
2022-08-23T10:49:49.969Z,56.04
2022-08-23T10:52:24.824Z,55.60
2022-08-23T10:55:08.616Z,54.47
2022-08-23T10:57:42.535Z,55.08
2022-08-23T11:00:17.693Z,56.69
2022-08-23T11:02:56.281Z,57.33
2022-08-23T11:05:38.829Z,58.23
2022-08-23T11:08:32.794Z,56.62
2022-08-23T11:11:05.742Z,56.94
2022-08-23T11:13:37.221Z,56.80
2022-08-23T11:16:15.272Z,57.38
2022-08-23T11:18:49.591Z,57.25
2022-08-23T11:21:46.960Z,56.04
2022-08-23T11:24:51.311Z,55.91
2022-08-23T11:27:38.315Z,56.05
2022-08-23T11:30:50.219Z,56.17
2022-08-23T11:33:32.622Z,56.92
2022-08-23T11:36:16.971Z,56.67
2022-08-23T11:39:09.211Z,57.62
2022-08-23T11:42:04.039Z,55.21
2022-08-23T11:44:48.178Z,54.44
2022-08-23T11:47:29.912Z,53.07
2022-08-23T11:50:25.642Z,51.57
2022-08-23T11:53:26.006Z,50.25
2022-08-23T11:56:12.610Z,48.54
2022-08-23T11:59:08.582Z,47.43
2022-08-23T12:01:41.818Z,46.86
2022-08-23T12:04:28.004Z,42.10
2022-08-23T12:07:03.158Z,32.67
2022-08-23T12:09:57.777Z,31.34
2022-08-23T12:12:37.782Z,30.39
2022-08-23T12:15:12.046Z,31.38
2022-08-23T12:18:16.612Z,33.76
2022-08-23T12:20:48.794Z,30.77
2022-08-23T12:23:22.101Z,31.31
2022-08-23T12:26:04.125Z,31.08
2022-08-23T12:28:46.312Z,28.41
2022-08-23T12:31:30.124Z,27.54
2022-08-23T12:34:23.534Z,31.30
2022-08-23T12:37:05.454Z,31.80
2022-08-23T12:39:41.809Z,33.15
2022-08-23T12:42:15.835Z,34.54
2022-08-23T12:44:46.493Z,34.71
2022-08-23T12:47:18.257Z,35.39
2022-08-23T12:50:01.674Z,36.65
2022-08-23T12:52:34.164Z,38.51
2022-08-23T12:55:03.200Z,37.69
2022-08-23T12:57:36.872Z,33.71
2022-08-23T13:00:21.690Z,28.71
2022-08-23T13:02:58.644Z,26.71
2022-08-23T13:05:40.178Z,24.27
2022-08-23T13:08:16.672Z,24.50
2022-08-23T13:10:47.195Z,25.05
2022-08-23T13:13:20.395Z,24.77
2022-08-23T13:15:53.719Z,24.59
2022-08-23T13:18:28.837Z,23.60
2022-08-23T13:21:34.092Z,22.31
2022-08-23T13:24:37.992Z,25.93
2022-08-23T13:27:34.661Z,27.45
2022-08-23T13:30:23.004Z,26.34
2022-08-23T13:32:54.408Z,26.24
2022-08-23T13:35:36.530Z,25.26
2022-08-23T13:38:21.407Z,24.60
2022-08-23T13:41:00.295Z,25.10
2022-08-23T13:43:34.421Z,25.39
2022-08-23T13:46:17.974Z,25.76
2022-08-23T13:48:56.255Z,27.43
2022-08-23T13:51:32.356Z,25.12
2022-08-23T13:54:06.590Z,27.32
2022-08-23T13:56:39.105Z,25.48
2022-08-23T13:59:20.643Z,26.10
2022-08-23T14:01:49.984Z,27.57
2022-08-23T14:04:18.986Z,27.06
2022-08-23T14:06:49.585Z,27.38
2022-08-23T14:09:20.565Z,23.68
2022-08-23T14:11:55.380Z,25.18
2022-08-23T14:14:24.915Z,24.79
2022-08-23T14:16:54.552Z,29.34
2022-08-23T14:22:13.256Z,27.47
2022-08-23T14:24:45.508Z,28.24
2022-08-23T14:27:15.478Z,30.25
2022-08-23T14:29:44.432Z,31.01
2022-08-23T14:32:13.384Z,34.18
2022-08-23T14:34:42.823Z,35.32
2022-08-23T14:40:02.859Z,35.03
2022-08-23T14:42:38.742Z,39.13
2022-08-23T14:45:11.515Z,40.27
2022-08-23T14:47:41.227Z,39.66
2022-08-23T14:50:14.867Z,39.65
2022-08-23T14:52:47.371Z,41.52
2022-08-23T14:55:21.088Z,40.40
2022-08-23T14:57:53.494Z,41.59
2022-08-23T15:00:23.626Z,40.27
2022-08-23T15:02:53.159Z,44.10
2022-08-23T15:05:22.439Z,42.28
2022-08-23T15:07:51.968Z,44.80
2022-08-23T15:13:21.598Z,48.82
2022-08-23T15:15:51.748Z,48.15
2022-08-23T15:18:22.059Z,49.76
2022-08-23T15:20:52.414Z,49.92
2022-08-23T15:23:22.274Z,50.00
2022-08-23T15:25:53.500Z,49.58
2022-08-23T15:28:24.881Z,50.37
2022-08-23T15:30:54.323Z,53.24
2022-08-23T15:33:26.777Z,52.62
2022-08-23T15:35:58.985Z,53.78
2022-08-23T15:38:29.089Z,53.68
2022-08-23T15:41:00.582Z,54.48
2022-08-23T15:43:33.942Z,56.38
2022-08-23T15:46:10.592Z,56.02
2022-08-23T15:48:46.717Z,56.70
2022-08-23T15:51:17.174Z,57.04
2022-08-23T15:53:47.361Z,57.93
2022-08-23T15:56:21.076Z,59.07
2022-08-23T15:58:50.869Z,58.49
2022-08-23T16:01:24.567Z,59.67
2022-08-23T16:03:54.386Z,60.96
2022-08-23T16:06:24.272Z,61.60
2022-08-23T16:08:54.835Z,62.00
2022-08-23T16:11:25.826Z,62.12
2022-08-23T16:13:55.846Z,62.68
2022-08-23T16:16:27.843Z,62.23
2022-08-23T16:18:58.336Z,62.43
2022-08-23T16:21:30.392Z,62.39
2022-08-23T16:24:00.378Z,63.29
2022-08-23T16:26:35.579Z,63.03
2022-08-23T16:29:09.464Z,62.91
2022-08-23T16:31:40.007Z,63.19
2022-08-23T16:34:12.101Z,62.80
2022-08-23T16:36:44.290Z,63.29
2022-08-23T16:39:14.812Z,63.73
2022-08-23T16:41:45.582Z,63.96
2022-08-23T16:44:14.883Z,65.16
2022-08-23T16:46:44.335Z,63.84
2022-08-23T16:49:16.054Z,66.36
2022-08-23T16:51:46.183Z,64.54
2022-08-23T16:54:15.938Z,66.46
2022-08-23T16:56:47.010Z,64.78
2022-08-23T16:59:16.319Z,64.89
2022-08-23T17:01:48.146Z,65.06
2022-08-23T17:04:18.827Z,65.39
2022-08-23T17:06:48.486Z,64.41
2022-08-23T17:09:17.720Z,65.25
2022-08-23T17:11:48.923Z,65.38
2022-08-23T17:14:17.928Z,64.93
2022-08-23T17:16:47.648Z,64.52
2022-08-23T17:19:16.805Z,65.19
2022-08-23T17:21:45.967Z,65.30
2022-08-23T17:24:15.376Z,65.51
2022-08-23T17:26:44.440Z,65.88
2022-08-23T17:29:14.982Z,65.21
2022-08-23T17:31:44.931Z,66.12
2022-08-23T17:34:14.063Z,67.49
2022-08-23T17:36:47.761Z,69.02
2022-08-23T17:39:21.199Z,70.22
2022-08-23T17:41:50.561Z,70.20
2022-08-23T17:44:21.425Z,71.24
2022-08-23T17:46:51.274Z,70.63
2022-08-23T17:49:22.390Z,72.42
2022-08-23T17:51:51.447Z,71.80
2022-08-23T17:54:20.431Z,71.44
2022-08-23T17:56:51.034Z,72.04
2022-08-23T17:59:22.675Z,73.27
2022-08-23T18:01:52.171Z,72.85
2022-08-23T18:04:21.371Z,73.77
2022-08-23T18:06:50.370Z,73.92
2022-08-23T18:09:19.674Z,74.70
2022-08-23T18:11:48.851Z,74.27
2022-08-23T18:14:18.085Z,74.27
2022-08-23T18:16:48.831Z,74.51
2022-08-23T18:19:17.973Z,75.50
2022-08-23T18:21:49.242Z,74.75
2022-08-23T18:24:19.047Z,74.97
2022-08-23T18:27:06.235Z,75.80
2022-08-23T18:30:11.606Z,75.29
2022-08-23T18:33:47.087Z,74.77
2022-08-23T18:36:36.894Z,75.22
2022-08-23T18:39:06.805Z,75.79
2022-08-23T18:41:36.540Z,75.42
2022-08-23T18:44:06.274Z,75.32
2022-08-23T18:46:35.877Z,75.10
2022-08-23T18:49:06.533Z,76.28
2022-08-23T18:51:37.059Z,76.76
2022-08-23T18:54:07.053Z,75.32
2022-08-23T18:56:37.789Z,76.19
2022-08-23T18:59:07.509Z,76.19
2022-08-23T19:01:39.615Z,76.40
2022-08-23T19:04:10.551Z,76.26
2022-08-23T19:06:41.930Z,76.39
2022-08-23T19:09:12.894Z,77.08
2022-08-23T19:11:43.484Z,76.26
2022-08-23T19:14:14.471Z,76.66
2022-08-23T19:16:48.192Z,76.38
2022-08-23T19:19:19.621Z,77.17
2022-08-23T19:21:50.463Z,76.48
2022-08-23T19:24:22.127Z,76.26
2022-08-23T19:26:54.535Z,76.65
2022-08-23T19:29:24.187Z,76.76
2022-08-23T19:31:53.479Z,76.20
2022-08-23T19:34:24.244Z,77.05
2022-08-23T19:37:00.610Z,77.63
2022-08-23T19:39:32.924Z,77.36
2022-08-23T19:42:07.419Z,77.00
2022-08-23T19:44:39.305Z,76.79
2022-08-23T19:47:09.096Z,77.00
2022-08-23T19:49:48.888Z,77.18
2022-08-23T19:52:19.605Z,77.34
2022-08-23T19:54:49.107Z,77.87
2022-08-23T19:57:18.555Z,78.07
2022-08-23T19:59:47.838Z,78.89
2022-08-23T20:02:16.966Z,78.36
2022-08-23T20:04:46.507Z,78.63
2022-08-23T20:07:15.755Z,78.42
2022-08-23T20:09:46.729Z,78.55
2022-08-23T20:12:18.970Z,78.65
2022-08-23T20:14:49.710Z,78.93
2022-08-23T20:17:19.267Z,79.69
2022-08-23T20:19:48.449Z,78.88
2022-08-23T20:22:35.523Z,79.14
2022-08-23T20:25:07.763Z,78.55
2022-08-23T20:27:39.402Z,78.42
2022-08-23T20:30:09.932Z,78.50
2022-08-23T20:32:40.413Z,79.04
2022-08-23T20:35:11.260Z,78.70
2022-08-23T20:37:42.632Z,78.55
2022-08-23T20:40:14.765Z,77.62
2022-08-23T20:42:43.978Z,78.08
2022-08-23T20:45:13.435Z,78.07
2022-08-23T20:47:42.405Z,78.47
2022-08-23T20:50:12.565Z,78.25
2022-08-23T20:52:41.730Z,78.10
2022-08-23T20:55:13.882Z,78.62
2022-08-23T20:57:43.109Z,78.02
2022-08-23T21:00:14.066Z,78.15
2022-08-23T21:02:43.142Z,77.93
2022-08-23T21:05:12.552Z,77.65
2022-08-23T21:07:41.858Z,77.36
2022-08-23T21:10:12.651Z,77.11
2022-08-23T21:12:42.059Z,77.80
2022-08-23T21:15:12.713Z,77.78
2022-08-23T21:17:41.802Z,78.01
2022-08-23T21:20:11.993Z,77.42
2022-08-23T21:22:41.089Z,77.54
2022-08-23T21:25:12.359Z,77.69
2022-08-23T21:27:42.189Z,78.02
2022-08-23T21:30:12.471Z,77.91
2022-08-23T21:32:41.612Z,78.31
2022-08-23T21:35:11.828Z,78.83
2022-08-23T21:37:41.084Z,79.05
2022-08-23T21:40:13.640Z,77.82
2022-08-23T21:42:43.580Z,77.45
2022-08-23T21:45:13.036Z,77.65
2022-08-23T21:47:43.000Z,78.13
2022-08-23T21:50:12.611Z,78.02
2022-08-23T21:52:42.000Z,77.63
2022-08-23T21:55:13.107Z,77.50
2022-08-23T21:57:42.862Z,77.21
2022-08-23T22:00:15.102Z,77.95
2022-08-23T22:02:44.469Z,78.48
2022-08-23T22:05:14.271Z,78.12
2022-08-23T22:07:43.637Z,77.88
2022-08-23T22:10:14.690Z,77.68
2022-08-23T22:12:43.932Z,78.19
2022-08-23T22:15:15.437Z,77.71
2022-08-23T22:17:44.646Z,77.84
2022-08-23T22:20:14.426Z,77.96
2022-08-23T22:22:43.849Z,78.06
2022-08-23T22:25:14.895Z,78.21
2022-08-23T22:27:44.797Z,78.49
2022-08-23T22:30:14.557Z,78.24
2022-08-23T22:32:44.089Z,78.36
2022-08-23T22:35:14.374Z,78.22
2022-08-23T22:38:03.555Z,78.15
2022-08-23T22:40:36.495Z,78.14
2022-08-23T22:43:05.423Z,78.17
2022-08-23T22:45:34.747Z,77.59
2022-08-23T22:48:04.293Z,77.24
2022-08-23T22:50:33.450Z,76.89
2022-08-23T22:53:02.403Z,77.07
2022-08-23T22:55:31.785Z,77.52
2022-08-23T22:58:02.880Z,77.75
2022-08-23T23:00:32.313Z,77.24
2022-08-23T23:03:01.380Z,77.69
2022-08-23T23:05:35.411Z,77.88
2022-08-23T23:08:22.557Z,77.80
2022-08-23T23:10:52.050Z,78.06
2022-08-23T23:13:23.774Z,78.38
2022-08-23T23:15:54.316Z,78.27
2022-08-23T23:18:24.714Z,78.63
2022-08-23T23:20:53.035Z,78.50
2022-08-23T23:23:23.423Z,79.51
2022-08-23T23:25:52.896Z,80.00
2022-08-23T23:28:23.546Z,79.16
2022-08-23T23:30:54.844Z,79.83
2022-08-23T23:33:24.757Z,79.96
2022-08-23T23:35:53.860Z,78.96
2022-08-23T23:38:23.112Z,80.33
2022-08-23T23:40:52.573Z,79.61
2022-08-23T23:43:23.031Z,79.45
2022-08-23T23:45:51.977Z,78.90
2022-08-23T23:48:21.290Z,79.40
2022-08-23T23:50:50.375Z,79.49
2022-08-23T23:53:20.303Z,78.91
2022-08-23T23:55:49.840Z,79.10
2022-08-23T23:58:18.757Z,78.65
